createdAt,value
2022-10-28T00:01:42.559Z,1.58
2022-10-28T00:10:08.178Z,1.40
2022-10-28T00:13:04.748Z,1.98
2022-10-28T00:15:45.963Z,1.38
2022-10-28T00:21:49.951Z,1.23
2022-10-28T00:27:40.561Z,1.88
2022-10-28T00:30:19.433Z,1.50
2022-10-28T00:33:12.170Z,1.13
2022-10-28T00:35:52.267Z,1.00
2022-10-28T00:38:48.155Z,1.17
2022-10-28T00:41:26.201Z,1.23
2022-10-28T00:44:17.478Z,1.38
2022-10-28T00:47:13.301Z,1.35
2022-10-28T00:50:14.484Z,1.27
2022-10-28T00:52:56.221Z,1.52
2022-10-28T00:55:38.480Z,1.33
2022-10-28T00:58:31.159Z,1.83
2022-10-28T01:01:23.060Z,1.40
2022-10-28T01:04:04.673Z,1.88
2022-10-28T01:06:47.931Z,1.55
2022-10-28T01:09:40.984Z,1.50
2022-10-28T01:12:38.508Z,1.45
2022-10-28T01:15:30.845Z,1.50
2022-10-28T01:18:16.186Z,1.05
2022-10-28T01:21:26.847Z,1.40
2022-10-28T01:24:22.894Z,1.55
2022-10-28T01:27:27.449Z,1.85
2022-10-28T01:30:43.752Z,1.30
2022-10-28T01:33:40.807Z,1.60
2022-10-28T01:36:28.745Z,1.80
2022-10-28T01:39:17.743Z,1.38
2022-10-28T01:42:09.564Z,1.40
2022-10-28T01:48:06.188Z,2.22
2022-10-28T01:51:05.193Z,1.08
2022-10-28T02:00:02.704Z,1.27
2022-10-28T02:02:39.390Z,1.60
2022-10-28T02:06:08.338Z,0.95
2022-10-28T02:09:14.128Z,0.88
2022-10-28T02:12:19.397Z,1.40
2022-10-28T02:15:15.899Z,1.23
2022-10-28T02:18:01.895Z,0.90
2022-10-28T02:20:44.338Z,1.02
2022-10-28T02:23:25.109Z,1.17
2022-10-28T02:26:01.652Z,1.25
2022-10-28T02:28:42.367Z,1.20
2022-10-28T02:31:27.952Z,0.90
2022-10-28T02:34:04.154Z,2.25
2022-10-28T02:36:40.621Z,2.20
2022-10-28T02:39:11.633Z,1.70
2022-10-28T02:41:49.404Z,1.40
2022-10-28T02:44:26.810Z,1.10
2022-10-28T02:47:00.822Z,0.88
2022-10-28T02:49:39.182Z,1.40
2022-10-28T02:52:11.761Z,1.80
2022-10-28T02:54:48.587Z,1.40
2022-10-28T02:57:22.861Z,2.25
2022-10-28T02:59:58.666Z,1.73
2022-10-28T03:02:30.683Z,2.60
2022-10-28T03:05:05.012Z,2.25
2022-10-28T03:07:39.243Z,2.70
2022-10-28T03:10:11.100Z,2.75
2022-10-28T03:12:41.917Z,2.42
2022-10-28T03:15:13.787Z,2.63
2022-10-28T03:17:44.736Z,3.20
2022-10-28T03:20:17.499Z,3.08
2022-10-28T03:22:52.805Z,2.33
2022-10-28T03:25:23.782Z,2.13
2022-10-28T03:27:54.863Z,2.30
2022-10-28T03:30:25.653Z,2.83
2022-10-28T03:33:00.435Z,2.00
2022-10-28T03:35:35.870Z,1.50
2022-10-28T03:38:07.151Z,1.92
2022-10-28T03:40:40.238Z,1.80
2022-10-28T03:43:11.150Z,2.08
2022-10-28T03:45:44.773Z,2.70
2022-10-28T03:49:01.409Z,2.78
2022-10-28T03:52:00.568Z,1.98
2022-10-28T03:54:34.477Z,2.03
2022-10-28T03:57:08.698Z,1.88
2022-10-28T03:59:49.464Z,1.75
2022-10-28T04:02:56.453Z,2.50
2022-10-28T04:05:19.538Z,1.23
2022-10-28T04:07:54.215Z,1.77
2022-10-28T04:10:29.039Z,1.20
2022-10-28T04:13:11.599Z,0.95
2022-10-28T04:15:44.599Z,1.10
2022-10-28T04:18:28.369Z,1.02
2022-10-28T04:21:02.970Z,2.67
2022-10-28T04:23:41.251Z,2.67
2022-10-28T04:26:17.553Z,1.35
2022-10-28T04:28:57.400Z,1.48
2022-10-28T04:39:36.560Z,1.00
2022-10-28T05:28:54.933Z,2.17
2022-10-28T05:31:27.512Z,2.28
2022-10-28T05:34:16.818Z,2.72
2022-10-28T05:36:52.030Z,3.03
2022-10-28T05:39:24.180Z,2.15
2022-10-28T05:41:58.499Z,2.20
2022-10-28T05:44:33.280Z,2.90
2022-10-28T05:47:07.500Z,2.55
2022-10-28T05:49:42.838Z,2.15
2022-10-28T05:52:16.078Z,2.90
2022-10-28T05:54:52.287Z,2.58
2022-10-28T05:57:24.450Z,3.00
2022-10-28T05:59:59.599Z,2.13
2022-10-28T06:03:30.942Z,3.20
2022-10-28T06:09:24.108Z,3.25
2022-10-28T06:11:56.106Z,2.92
2022-10-28T06:14:29.097Z,2.38
2022-10-28T06:17:02.944Z,2.63
2022-10-28T06:19:38.467Z,3.15
2022-10-28T06:22:11.141Z,2.42
2022-10-28T06:24:42.329Z,2.70
2022-10-28T06:27:21.359Z,2.00
2022-10-28T06:29:52.683Z,2.42
2022-10-28T06:32:36.601Z,3.33
2022-10-28T06:35:25.413Z,3.90
2022-10-28T06:37:56.980Z,4.78
2022-10-28T06:40:29.075Z,4.57
2022-10-28T06:43:05.895Z,3.17
2022-10-28T06:45:37.506Z,2.75
2022-10-28T06:48:13.403Z,3.28
2022-10-28T06:50:44.960Z,3.20
2022-10-28T06:53:19.390Z,3.40
2022-10-28T06:55:56.463Z,3.72
2022-10-28T06:58:28.537Z,3.03
2022-10-28T07:00:59.777Z,3.45
2022-10-28T07:03:33.953Z,3.50
2022-10-28T07:06:05.219Z,4.65
2022-10-28T07:08:36.141Z,4.10
2022-10-28T07:11:09.867Z,7.60
2022-10-28T07:13:42.539Z,4.63
2022-10-28T07:16:27.533Z,3.42
2022-10-28T07:19:02.247Z,6.05
2022-10-28T07:21:35.578Z,4.18
2022-10-28T07:24:06.851Z,3.35
2022-10-28T07:26:38.897Z,4.13
2022-10-28T07:29:14.754Z,3.65
2022-10-28T07:31:46.866Z,4.00
2022-10-28T07:34:38.304Z,4.68
2022-10-28T07:37:22.646Z,3.42
2022-10-28T07:39:53.691Z,2.90
2022-10-28T07:42:25.389Z,3.65
2022-10-28T07:44:56.366Z,3.97
2022-10-28T07:47:27.268Z,4.00
2022-10-28T07:50:00.287Z,4.40
2022-10-28T07:52:31.216Z,4.00
2022-10-28T07:55:02.607Z,3.80
2022-10-28T07:57:38.446Z,3.95
2022-10-28T08:00:11.160Z,3.10
2022-10-28T08:02:44.387Z,3.20
2022-10-28T08:05:17.665Z,3.75
2022-10-28T08:07:49.481Z,3.83
2022-10-28T08:10:25.321Z,2.83
2022-10-28T08:13:01.929Z,3.30
2022-10-28T08:15:49.932Z,4.20
2022-10-28T08:18:21.052Z,3.35
2022-10-28T08:20:54.120Z,2.42
2022-10-28T08:23:25.450Z,2.53
2022-10-28T08:25:57.105Z,3.22
2022-10-28T08:28:28.469Z,2.80
2022-10-28T08:31:09.192Z,2.88
2022-10-28T08:33:41.412Z,2.60
2022-10-28T08:36:16.942Z,2.58
2022-10-28T08:38:49.425Z,1.95
2022-10-28T08:41:34.803Z,2.30
2022-10-28T08:44:37.687Z,2.42
2022-10-28T08:47:19.546Z,2.45
2022-10-28T08:49:55.680Z,2.42
2022-10-28T08:52:35.011Z,2.22
2022-10-28T08:55:10.736Z,2.05
2022-10-28T08:57:45.151Z,2.70
2022-10-28T09:00:23.587Z,3.25
2022-10-28T09:03:09.344Z,3.42
2022-10-28T09:05:41.837Z,3.80
2022-10-28T09:08:25.407Z,3.63
2022-10-28T09:11:26.354Z,3.33
2022-10-28T09:14:24.440Z,3.50
2022-10-28T09:17:12.740Z,3.65
2022-10-28T09:19:53.308Z,2.95
2022-10-28T09:22:27.889Z,2.78
2022-10-28T09:25:08.008Z,3.00
2022-10-28T09:27:59.004Z,3.10
2022-10-28T09:30:39.749Z,2.88
2022-10-28T09:33:51.901Z,3.30
2022-10-28T09:36:29.572Z,2.65
2022-10-28T09:39:04.811Z,1.90
2022-10-28T09:41:44.235Z,1.92
2022-10-28T09:44:24.790Z,2.25
2022-10-28T09:47:08.398Z,2.20
2022-10-28T09:49:42.523Z,3.58
2022-10-28T09:52:26.516Z,3.45
2022-10-28T09:56:14.318Z,2.20
2022-10-28T09:58:50.155Z,2.58
2022-10-28T10:01:22.977Z,1.75
2022-10-28T10:03:57.744Z,2.08
2022-10-28T10:06:32.013Z,2.00
2022-10-28T10:09:03.285Z,2.55
2022-10-28T10:11:46.012Z,1.50
2022-10-28T10:14:21.435Z,2.03
2022-10-28T10:16:57.381Z,1.58
2022-10-28T10:19:28.797Z,2.75
2022-10-28T10:22:00.015Z,2.22
2022-10-28T10:24:35.575Z,2.13
2022-10-28T10:27:20.637Z,2.28
2022-10-28T10:29:55.379Z,2.22
2022-10-28T10:32:32.426Z,1.38
2022-10-28T10:35:18.314Z,1.20
2022-10-28T10:37:51.021Z,1.33
2022-10-28T10:40:27.178Z,3.35
2022-10-28T10:43:10.035Z,1.77
2022-10-28T10:45:55.341Z,1.90
2022-10-28T10:48:26.377Z,1.60
2022-10-28T10:51:00.683Z,2.25
2022-10-28T10:53:34.295Z,2.78
2022-10-28T10:56:42.894Z,1.63
2022-10-28T10:59:27.687Z,2.13
2022-10-28T11:02:01.577Z,2.10
2022-10-28T11:04:37.782Z,2.13
2022-10-28T11:07:09.129Z,2.20
2022-10-28T11:09:53.025Z,2.00
2022-10-28T11:13:43.572Z,2.30
2022-10-28T11:16:29.449Z,2.28
2022-10-28T11:19:21.006Z,1.92
2022-10-28T11:22:05.764Z,1.75
2022-10-28T11:24:59.000Z,1.70
2022-10-28T11:27:43.178Z,1.60
2022-10-28T11:30:19.129Z,1.20
2022-10-28T11:33:28.307Z,1.60
2022-10-28T11:36:15.195Z,4.47
2022-10-28T11:39:03.289Z,4.47
2022-10-28T11:41:43.254Z,3.67
2022-10-28T11:44:28.104Z,3.03
2022-10-28T11:47:22.550Z,4.28
2022-10-28T11:50:29.832Z,5.15
2022-10-28T11:53:26.337Z,2.15
2022-10-28T11:56:06.585Z,3.80
2022-10-28T11:58:57.359Z,3.50
2022-10-28T12:01:48.732Z,2.45
2022-10-28T12:04:36.600Z,1.90
2022-10-28T12:07:29.135Z,2.40
2022-10-28T12:10:35.549Z,3.22
2022-10-28T12:13:25.658Z,2.40
2022-10-28T12:16:23.885Z,2.47
2022-10-28T12:19:00.656Z,1.58
2022-10-28T12:26:54.843Z,2.55
2022-10-28T12:29:29.786Z,2.17
2022-10-28T12:32:08.783Z,2.58
2022-10-28T12:34:45.009Z,2.00
2022-10-28T12:37:21.414Z,2.20
2022-10-28T12:40:07.455Z,2.33
2022-10-28T12:42:43.380Z,3.13
2022-10-28T12:45:17.811Z,2.30
2022-10-28T12:47:56.613Z,2.60
2022-10-28T12:50:35.003Z,2.60
2022-10-28T12:53:24.393Z,2.22
2022-10-28T12:56:00.600Z,2.13
2022-10-28T12:58:38.693Z,2.13
2022-10-28T13:01:13.906Z,2.10
2022-10-28T13:03:45.134Z,2.20
2022-10-28T13:06:38.439Z,5.00
2022-10-28T13:09:45.455Z,4.70
2022-10-28T13:12:33.564Z,3.53
2022-10-28T13:15:33.938Z,3.20
2022-10-28T13:18:25.250Z,4.13
2022-10-28T13:21:06.432Z,2.90
2022-10-28T13:23:46.581Z,2.55
2022-10-28T13:26:27.221Z,2.40
2022-10-28T13:29:00.199Z,2.78
2022-10-28T13:31:42.730Z,2.25
2022-10-28T13:34:19.568Z,2.00
2022-10-28T13:36:58.272Z,2.53
2022-10-28T13:39:45.334Z,2.28
2022-10-28T13:42:48.560Z,2.00
2022-10-28T13:45:51.793Z,1.75
2022-10-28T13:49:01.396Z,2.42
2022-10-28T13:51:36.720Z,2.70
2022-10-28T13:54:20.643Z,2.20
2022-10-28T13:56:55.652Z,2.42
2022-10-28T13:59:31.839Z,3.42
2022-10-28T14:05:16.599Z,2.65
2022-10-28T14:07:57.430Z,2.78
2022-10-28T14:10:30.902Z,2.40
2022-10-28T14:13:04.150Z,2.47
2022-10-28T14:15:37.047Z,2.30
2022-10-28T14:18:37.468Z,1.55
2022-10-28T14:21:03.464Z,2.67
2022-10-28T14:24:18.947Z,2.47
2022-10-28T14:27:28.286Z,2.00
2022-10-28T14:30:19.933Z,1.33
2022-10-28T14:33:22.415Z,1.90
2022-10-28T14:36:02.851Z,1.52
2022-10-28T14:39:06.065Z,1.63
2022-10-28T14:48:15.879Z,2.10
2022-10-28T14:50:49.732Z,1.55
2022-10-28T14:53:30.554Z,1.70
2022-10-28T14:58:54.832Z,1.85
2022-10-28T15:01:32.786Z,1.55
2022-10-28T15:04:08.447Z,1.58
2022-10-28T15:06:43.641Z,1.38
2022-10-28T15:09:23.397Z,1.40
2022-10-28T15:11:59.850Z,1.70
2022-10-28T15:14:34.973Z,1.52
2022-10-28T15:17:17.951Z,1.60
2022-10-28T15:19:49.947Z,1.70
2022-10-28T15:22:23.560Z,1.50
2022-10-28T15:25:02.484Z,1.30
2022-10-28T15:27:36.755Z,1.83
2022-10-28T15:30:10.611Z,1.70
2022-10-28T15:32:41.507Z,1.30
2022-10-28T15:35:43.306Z,1.70
2022-10-28T15:38:39.042Z,1.38
2022-10-28T15:41:44.922Z,1.90
2022-10-28T15:44:48.681Z,1.45
2022-10-28T15:47:26.107Z,1.58
2022-10-28T15:50:37.952Z,1.70
2022-10-28T15:53:36.408Z,1.50
2022-10-28T15:56:25.272Z,1.58
2022-10-28T15:59:14.026Z,1.83
2022-10-28T16:01:49.634Z,1.52
2022-10-28T16:04:50.488Z,1.40
2022-10-28T16:07:21.505Z,1.42
2022-10-28T16:09:52.955Z,1.50
2022-10-28T16:12:27.445Z,2.05
2022-10-28T16:15:02.262Z,1.90
2022-10-28T16:17:39.199Z,2.05
2022-10-28T16:20:18.538Z,2.00
2022-10-28T16:25:24.976Z,2.13
2022-10-28T16:27:56.444Z,1.48
2022-10-28T16:30:27.646Z,2.30
2022-10-28T16:33:00.375Z,2.03
2022-10-28T16:35:31.384Z,3.25
2022-10-28T16:38:03.739Z,3.13
2022-10-28T16:40:52.338Z,2.25
2022-10-28T16:43:25.648Z,4.22
2022-10-28T16:46:00.425Z,5.03
2022-10-28T16:48:34.481Z,2.03
2022-10-28T16:51:07.398Z,2.47
2022-10-28T16:53:39.736Z,1.48
2022-10-28T16:56:14.427Z,2.00
2022-10-28T16:58:47.804Z,2.03
2022-10-28T17:01:22.721Z,1.83
2022-10-28T17:03:56.440Z,2.67
2022-10-28T17:06:27.714Z,1.52
2022-10-28T17:09:03.381Z,1.50
2022-10-28T17:11:34.743Z,1.73
2022-10-28T17:14:05.628Z,1.77
2022-10-28T17:16:38.081Z,0.80
2022-10-28T17:19:14.021Z,1.63
2022-10-28T17:21:45.657Z,1.30
2022-10-28T17:24:16.812Z,1.85
2022-10-28T17:26:48.713Z,1.80
2022-10-28T17:29:20.144Z,2.22
2022-10-28T17:34:40.848Z,1.27
2022-10-28T17:37:12.518Z,1.48
2022-10-28T17:39:43.427Z,1.40
2022-10-28T17:42:14.516Z,1.70
2022-10-28T17:44:46.106Z,2.80
2022-10-28T17:47:17.703Z,1.60
2022-10-28T17:49:50.512Z,1.00
2022-10-28T17:52:21.445Z,1.35
2022-10-28T17:54:52.449Z,1.75
2022-10-28T17:57:23.450Z,2.42
2022-10-28T17:59:54.410Z,1.70
2022-10-28T18:02:25.860Z,1.67
2022-10-28T18:04:58.651Z,1.55
2022-10-28T18:07:29.583Z,2.00
2022-10-28T18:10:00.460Z,1.27
2022-10-28T18:12:31.622Z,2.00
2022-10-28T18:15:03.475Z,1.50
2022-10-28T18:17:34.465Z,1.40
2022-10-28T18:20:07.294Z,1.65
2022-10-28T18:22:39.079Z,2.72
2022-10-28T18:25:45.651Z,1.88
2022-10-28T18:28:52.547Z,3.13
2022-10-28T18:32:01.639Z,3.05
2022-10-28T18:35:08.285Z,1.58
2022-10-28T18:38:15.202Z,3.90
2022-10-28T18:41:22.089Z,2.00
2022-10-28T18:44:32.799Z,2.53
2022-10-28T18:47:39.624Z,1.98
2022-10-28T18:50:49.216Z,2.53
2022-10-28T18:53:23.147Z,1.73
2022-10-28T18:55:56.897Z,2.33
2022-10-28T18:58:33.894Z,1.83
2022-10-28T19:01:11.670Z,3.50
2022-10-28T19:03:43.229Z,1.92
2022-10-28T19:06:23.173Z,1.90
2022-10-28T19:09:35.514Z,1.77
2022-10-28T19:13:05.184Z,1.80
2022-10-28T19:19:40.364Z,1.75
2022-10-28T19:22:47.422Z,2.58
2022-10-28T19:25:54.214Z,1.73
2022-10-28T19:29:01.274Z,1.60
2022-10-28T19:32:11.449Z,1.67
2022-10-28T19:35:18.765Z,2.50
2022-10-28T19:38:27.182Z,1.60
2022-10-28T19:41:33.970Z,2.40
2022-10-28T19:44:51.276Z,3.95
2022-10-28T19:47:58.345Z,1.40
2022-10-28T19:51:06.027Z,1.55
2022-10-28T19:54:13.550Z,2.92
2022-10-28T19:57:22.698Z,3.83
2022-10-28T20:00:29.804Z,2.40
2022-10-28T20:03:39.366Z,2.00
2022-10-28T20:06:59.528Z,1.33
2022-10-28T20:10:24.670Z,1.30
2022-10-28T20:13:31.649Z,2.22
2022-10-28T20:16:49.361Z,2.35
2022-10-28T20:19:57.074Z,2.35
2022-10-28T20:23:04.765Z,1.88
2022-10-28T20:26:13.688Z,1.90
2022-10-28T20:29:20.523Z,2.00
2022-10-28T20:32:30.182Z,1.85
2022-10-28T20:35:37.641Z,2.03
2022-10-28T20:38:44.926Z,3.28
2022-10-28T20:41:52.138Z,2.67
2022-10-28T20:44:59.231Z,3.13
2022-10-28T20:48:09.128Z,4.75
2022-10-28T20:51:15.800Z,3.80
2022-10-28T20:54:22.473Z,5.15
2022-10-28T20:57:29.977Z,4.57
2022-10-28T21:00:39.518Z,3.60
2022-10-28T21:03:52.929Z,6.68
2022-10-28T21:07:07.870Z,5.30
2022-10-28T21:10:17.708Z,5.78
2022-10-28T21:13:55.262Z,7.10
2022-10-28T21:17:05.829Z,8.40
2022-10-28T21:20:19.421Z,6.63
2022-10-28T21:26:28.890Z,6.07
2022-10-28T21:31:30.849Z,6.10
2022-10-28T21:34:04.452Z,8.02
2022-10-28T21:36:38.881Z,7.07
2022-10-28T21:39:27.093Z,5.97
2022-10-28T21:41:59.770Z,7.82
2022-10-28T21:44:33.154Z,6.00
2022-10-28T21:47:04.119Z,7.72
2022-10-28T21:49:38.482Z,10.55
2022-10-28T21:52:09.577Z,10.07
2022-10-28T21:54:40.408Z,6.47
2022-10-28T21:57:13.502Z,6.80
2022-10-28T21:59:44.671Z,6.38
2022-10-28T22:02:15.667Z,5.30
2022-10-28T22:04:46.585Z,6.45
2022-10-28T22:07:17.355Z,4.25
2022-10-28T22:09:48.236Z,3.83
2022-10-28T22:12:23.210Z,4.70
2022-10-28T22:14:54.624Z,3.80
2022-10-28T22:17:25.513Z,3.40
2022-10-28T22:20:03.463Z,2.90
2022-10-28T22:22:34.469Z,3.28
2022-10-28T22:25:07.803Z,2.88
2022-10-28T22:27:44.540Z,3.78
2022-10-28T22:30:20.579Z,3.95
2022-10-28T22:32:55.187Z,4.10
2022-10-28T22:35:29.235Z,4.47
2022-10-28T22:38:02.474Z,4.82
2022-10-28T22:40:35.462Z,4.82
2022-10-28T22:43:10.738Z,5.13
2022-10-28T22:45:41.503Z,4.63
2022-10-28T22:48:12.675Z,4.13
2022-10-28T22:50:45.173Z,4.50
2022-10-28T22:53:16.040Z,4.53
2022-10-28T22:55:46.847Z,3.25
2022-10-28T22:58:22.404Z,5.00
2022-10-28T23:00:56.417Z,6.10
2022-10-28T23:03:27.932Z,4.78
2022-10-28T23:06:01.068Z,4.60
2022-10-28T23:08:32.382Z,4.07
2022-10-28T23:11:03.277Z,3.97
2022-10-28T23:13:38.953Z,4.30
2022-10-28T23:16:10.999Z,5.10
2022-10-28T23:18:45.907Z,5.38
2022-10-28T23:21:20.198Z,3.67
2022-10-28T23:23:55.570Z,3.47
2022-10-28T23:26:27.198Z,4.85
2022-10-28T23:29:01.428Z,4.75
2022-10-28T23:31:32.563Z,4.63
2022-10-28T23:34:03.667Z,4.43
2022-10-28T23:36:35.656Z,3.88
2022-10-28T23:39:08.231Z,4.53
2022-10-28T23:41:38.960Z,5.65
2022-10-28T23:44:11.563Z,3.80
2022-10-28T23:46:45.459Z,3.70
2022-10-28T23:49:19.450Z,3.40
2022-10-28T23:51:50.400Z,3.50
2022-10-28T23:54:21.284Z,2.90
2022-10-28T23:56:56.175Z,2.65
2022-10-28T23:59:31.509Z,1.80
